createdAt,value
2022-09-25T09:18:56.874Z,4.95
2022-09-25T09:21:51.321Z,5.53
2022-09-25T09:24:26.870Z,5.65
2022-09-25T09:27:03.571Z,6.03
2022-09-25T09:29:36.482Z,6.60
2022-09-25T09:32:21.938Z,6.78
2022-09-25T09:35:07.002Z,6.93
2022-09-25T09:37:58.478Z,6.70
2022-09-25T09:40:54.032Z,7.03
2022-09-25T09:43:38.705Z,6.13
2022-09-25T09:46:21.396Z,5.75
2022-09-25T09:49:16.495Z,9.45
2022-09-25T09:51:52.862Z,6.82
2022-09-25T09:54:35.986Z,6.18
2022-09-25T09:57:11.027Z,5.53
2022-09-25T09:59:46.210Z,5.03
2022-09-25T10:02:40.839Z,4.43
2022-09-25T10:05:24.590Z,4.95
2022-09-25T10:07:52.078Z,5.97
2022-09-25T10:10:19.821Z,4.95
2022-09-25T10:12:50.987Z,8.07
2022-09-25T10:15:33.745Z,5.93
2022-09-25T10:18:03.064Z,5.97
2022-09-25T10:20:39.783Z,5.93
2022-09-25T10:23:22.311Z,5.03
2022-09-25T10:25:52.454Z,5.40
2022-09-25T10:28:27.528Z,4.55
2022-09-25T10:30:54.732Z,3.85
2022-09-25T10:33:27.150Z,4.50
2022-09-25T10:35:54.915Z,3.88
2022-09-25T10:38:34.545Z,4.35
2022-09-25T10:41:12.187Z,3.97
2022-09-25T10:43:56.041Z,3.90
2022-09-25T10:46:52.167Z,4.13
2022-09-25T10:49:42.997Z,4.47
2022-09-25T10:52:11.951Z,4.63
2022-09-25T10:54:43.870Z,4.40
2022-09-25T10:57:23.227Z,4.65
2022-09-25T10:59:51.479Z,4.70
2022-09-25T11:02:48.408Z,4.75
2022-09-25T11:05:19.967Z,3.70
2022-09-25T11:07:55.322Z,3.85
2022-09-25T11:10:37.033Z,4.10
2022-09-25T11:13:09.387Z,4.10
2022-09-25T11:15:39.124Z,3.90
2022-09-25T11:18:09.044Z,4.00
2022-09-25T11:20:36.805Z,4.32
2022-09-25T11:23:21.935Z,4.55
2022-09-25T11:26:06.177Z,3.72
2022-09-25T11:29:04.563Z,4.30
2022-09-25T11:31:42.766Z,4.25
2022-09-25T11:34:19.298Z,3.78
2022-09-25T11:37:00.418Z,4.20
2022-09-25T11:39:57.629Z,4.90
2022-09-25T11:42:49.230Z,4.32
2022-09-25T11:45:24.562Z,4.35
2022-09-25T11:48:05.375Z,4.55
2022-09-25T11:50:47.582Z,4.60
2022-09-25T11:53:14.322Z,3.95
2022-09-25T11:55:47.048Z,3.50
2022-09-25T11:58:33.246Z,4.90
2022-09-25T12:01:06.187Z,4.57
2022-09-25T12:03:42.078Z,4.55
2022-09-25T12:06:28.794Z,4.32
2022-09-25T12:09:19.853Z,4.05
2022-09-25T12:11:59.010Z,4.32
2022-09-25T12:14:31.762Z,5.05
2022-09-25T12:17:17.810Z,4.82
2022-09-25T12:20:13.227Z,3.80
2022-09-25T12:23:14.291Z,3.50
2022-09-25T12:25:48.063Z,3.80
2022-09-25T12:28:29.377Z,3.88
2022-09-25T12:30:57.100Z,3.35
2022-09-25T12:33:28.056Z,3.60
2022-09-25T12:36:04.204Z,3.40
2022-09-25T12:38:55.446Z,3.90
2022-09-25T12:41:41.406Z,3.10
2022-09-25T12:44:26.582Z,3.05
2022-09-25T12:47:02.918Z,3.00
2022-09-25T12:49:40.840Z,2.85
2022-09-25T12:52:12.968Z,2.72
2022-09-25T12:55:07.382Z,2.78
2022-09-25T12:57:48.299Z,3.25
2022-09-25T13:00:21.079Z,3.35
2022-09-25T13:02:54.566Z,2.58
2022-09-25T13:05:34.770Z,2.30
2022-09-25T13:08:24.422Z,2.50
2022-09-25T13:11:02.181Z,2.60
2022-09-25T13:13:36.369Z,2.63
2022-09-25T13:16:03.310Z,2.50
2022-09-25T13:18:31.233Z,2.67
2022-09-25T13:21:32.571Z,2.47
2022-09-25T13:24:00.239Z,2.25
2022-09-25T13:26:27.803Z,2.30
2022-09-25T13:29:23.860Z,2.20
2022-09-25T13:31:53.544Z,2.10
2022-09-25T13:34:23.039Z,2.00
2022-09-25T13:36:54.152Z,2.05
2022-09-25T13:40:00.938Z,2.10
2022-09-25T13:42:40.036Z,2.13
2022-09-25T13:45:33.986Z,2.00
2022-09-25T13:48:26.365Z,1.83
2022-09-25T13:51:18.526Z,1.80
2022-09-25T13:53:56.540Z,1.90
2022-09-25T13:56:25.716Z,2.17
2022-09-25T13:59:19.395Z,2.10
2022-09-25T14:01:49.178Z,1.75
2022-09-25T14:04:15.648Z,1.80
2022-09-25T14:09:12.761Z,1.52
2022-09-25T14:11:42.592Z,2.13
2022-09-25T14:14:22.660Z,2.30
2022-09-25T14:16:52.236Z,1.75
2022-09-25T14:19:26.996Z,1.98
2022-09-25T14:21:54.004Z,1.80
2022-09-25T14:24:21.839Z,1.67
2022-09-25T14:26:51.345Z,1.70
2022-09-25T14:29:22.915Z,1.80
2022-09-25T14:32:50.353Z,1.70
2022-09-25T14:35:25.081Z,1.80
2022-09-25T14:38:19.419Z,2.00
2022-09-25T14:41:31.232Z,1.85
2022-09-25T14:44:17.750Z,1.88
2022-09-25T14:46:48.920Z,1.70
2022-09-25T14:49:26.669Z,1.60
2022-09-25T14:51:57.779Z,1.48
2022-09-25T14:54:29.299Z,1.52
2022-09-25T14:56:58.485Z,2.00
2022-09-25T14:59:39.745Z,1.60
2022-09-25T15:02:20.156Z,1.55
2022-09-25T15:04:46.826Z,1.75
2022-09-25T15:07:17.317Z,2.10
2022-09-25T15:09:49.343Z,1.65
2022-09-25T15:12:30.985Z,1.80
2022-09-25T15:15:10.201Z,1.60
2022-09-25T15:20:15.517Z,1.50
2022-09-25T15:22:47.167Z,1.80
2022-09-25T15:25:26.443Z,1.60
2022-09-25T15:27:53.766Z,1.77
2022-09-25T15:30:20.718Z,1.60
2022-09-25T15:32:51.858Z,1.60
2022-09-25T15:35:24.881Z,1.90
2022-09-25T15:38:10.722Z,1.50
2022-09-25T15:40:38.134Z,1.77
2022-09-25T15:43:13.197Z,1.60
2022-09-25T15:45:55.301Z,2.13
2022-09-25T15:48:29.301Z,1.50
2022-09-25T15:50:57.649Z,1.48
2022-09-25T15:53:30.543Z,1.70
2022-09-25T15:56:14.133Z,1.95
2022-09-25T15:58:51.626Z,1.50
2022-09-25T16:01:42.561Z,1.60
2022-09-25T16:04:36.546Z,1.70
2022-09-25T16:07:24.318Z,1.63
2022-09-25T16:09:54.175Z,1.52
2022-09-25T16:12:42.046Z,1.58
2022-09-25T16:15:26.729Z,1.85
2022-09-25T16:18:05.424Z,1.50
2022-09-25T16:20:35.948Z,2.20
2022-09-25T16:23:05.797Z,1.83
2022-09-25T16:25:38.078Z,1.80
2022-09-25T16:28:16.823Z,1.70
2022-09-25T16:31:00.869Z,1.90
2022-09-25T16:33:33.784Z,1.70
2022-09-25T16:36:18.792Z,1.60
2022-09-25T16:39:13.215Z,1.88
2022-09-25T16:41:48.676Z,1.80
2022-09-25T16:44:19.605Z,2.47
2022-09-25T16:46:52.348Z,1.70
2022-09-25T16:49:20.049Z,1.63
2022-09-25T16:51:48.377Z,1.70
2022-09-25T16:54:17.395Z,2.13
2022-09-25T16:56:46.001Z,2.00
2022-09-25T16:59:24.451Z,1.60
2022-09-25T17:01:53.353Z,1.60
2022-09-25T17:04:23.896Z,1.80
2022-09-25T17:06:50.692Z,2.17
2022-09-25T17:09:18.249Z,1.90
2022-09-25T17:11:47.799Z,2.03
2022-09-25T17:14:25.608Z,2.47
2022-09-25T17:16:54.638Z,2.13
2022-09-25T17:19:21.996Z,2.28
2022-09-25T17:21:51.456Z,2.50
2022-09-25T17:24:20.371Z,2.03
2022-09-25T17:26:47.400Z,2.13
2022-09-25T17:29:14.092Z,2.38
2022-09-25T17:31:40.834Z,2.35
2022-09-25T17:34:30.160Z,2.28
2022-09-25T17:36:57.943Z,2.20
2022-09-25T17:39:24.508Z,2.60
2022-09-25T17:44:19.367Z,2.78
2022-09-25T17:46:46.020Z,2.60
2022-09-25T17:49:12.776Z,6.80
2022-09-25T17:51:40.060Z,4.43
2022-09-25T17:54:06.679Z,2.75
2022-09-25T17:56:37.776Z,3.22
2022-09-25T17:59:05.672Z,2.35
2022-09-25T18:01:38.367Z,3.22
2022-09-25T18:04:25.588Z,2.92
2022-09-25T18:06:52.236Z,2.50
2022-09-25T18:09:19.494Z,2.40
2022-09-25T18:11:46.071Z,2.53
2022-09-25T18:16:42.608Z,2.35
2022-09-25T18:19:38.908Z,2.40
2022-09-25T18:22:18.973Z,2.42
2022-09-25T18:24:47.047Z,2.55
2022-09-25T18:27:15.572Z,2.40
2022-09-25T18:29:44.665Z,2.60
2022-09-25T18:32:11.642Z,2.50
2022-09-25T18:34:38.136Z,2.47
2022-09-25T18:39:31.293Z,2.20
2022-09-25T18:41:57.778Z,2.22
2022-09-25T18:46:51.865Z,2.45
2022-09-25T18:49:19.255Z,2.53
2022-09-25T18:51:46.025Z,2.47
2022-09-25T18:54:14.227Z,2.65
2022-09-25T18:56:41.641Z,2.88
2022-09-25T18:59:08.460Z,3.15
2022-09-25T19:01:35.905Z,2.65
2022-09-25T19:04:02.682Z,2.55
2022-09-25T19:08:57.244Z,2.92
2022-09-25T19:11:26.038Z,3.13
2022-09-25T19:13:53.083Z,3.33
2022-09-25T19:16:20.606Z,2.53
2022-09-25T19:18:47.244Z,2.90
2022-09-25T19:23:43.292Z,3.00
2022-09-25T19:26:14.975Z,2.90
2022-09-25T19:28:42.236Z,3.58
2022-09-25T19:31:14.973Z,2.97
2022-09-25T19:33:41.687Z,3.50
2022-09-25T19:38:38.725Z,2.60
2022-09-25T19:41:12.252Z,2.90
2022-09-25T19:43:39.617Z,2.60
2022-09-25T19:46:06.895Z,3.63
2022-09-25T19:48:33.697Z,2.97
2022-09-25T19:51:06.213Z,4.40
2022-09-25T19:53:33.117Z,4.25
2022-09-25T19:55:59.889Z,4.60
2022-09-25T19:58:26.401Z,4.68
2022-09-25T20:00:54.175Z,5.90
2022-09-25T20:03:20.693Z,4.47
2022-09-25T20:08:15.941Z,3.40
2022-09-25T20:10:42.522Z,3.50
2022-09-25T20:15:36.903Z,3.40
2022-09-25T20:18:03.508Z,2.90
2022-09-25T20:22:57.181Z,3.33
2022-09-25T20:25:25.028Z,2.80
2022-09-25T20:27:52.389Z,3.88
2022-09-25T20:30:19.267Z,3.85
2022-09-25T20:32:46.055Z,4.47
2022-09-25T20:35:13.428Z,4.45
2022-09-25T20:37:40.060Z,4.03
2022-09-25T20:42:34.060Z,4.38
2022-09-25T20:45:00.680Z,4.68
2022-09-25T20:49:57.459Z,3.80
2022-09-25T20:52:23.944Z,4.32
2022-09-25T20:54:50.489Z,4.20
2022-09-25T20:59:43.520Z,4.00
2022-09-25T21:02:10.487Z,4.05
2022-09-25T21:04:37.162Z,4.25
2022-09-25T21:09:31.285Z,3.30
2022-09-25T21:11:57.849Z,4.10
2022-09-25T21:16:56.383Z,4.55
2022-09-25T21:19:23.681Z,4.68
2022-09-25T21:21:50.495Z,4.15
2022-09-25T21:24:19.819Z,3.72
2022-09-25T21:26:46.995Z,3.88
2022-09-25T21:29:16.063Z,3.63
2022-09-25T21:31:48.408Z,3.47
2022-09-25T21:34:16.396Z,3.50
2022-09-25T21:36:43.827Z,3.30
2022-09-25T21:39:11.004Z,3.03
2022-09-25T21:41:37.644Z,3.20
2022-09-25T21:46:33.663Z,3.05
2022-09-25T21:49:03.544Z,3.00
2022-09-25T21:51:36.014Z,3.75
2022-09-25T21:54:02.861Z,2.80
2022-09-25T21:56:31.606Z,2.85
2022-09-25T21:59:00.996Z,2.70
2022-09-25T22:01:33.535Z,2.67
2022-09-25T22:04:00.137Z,2.75
2022-09-25T22:06:33.695Z,3.00
2022-09-25T22:09:12.360Z,2.90
2022-09-25T22:11:39.772Z,2.60
2022-09-25T22:14:09.802Z,3.15
2022-09-25T22:16:41.350Z,2.50
2022-09-25T22:19:18.790Z,2.47
2022-09-25T22:21:47.531Z,2.85
2022-09-25T22:24:14.580Z,2.60
2022-09-25T22:26:43.084Z,2.58
2022-09-25T22:29:10.567Z,2.85
2022-09-25T22:31:44.346Z,2.55
2022-09-25T22:34:26.017Z,2.47
2022-09-25T22:36:58.721Z,2.40
2022-09-25T22:39:26.564Z,2.63
2022-09-25T22:41:53.934Z,2.70
2022-09-25T22:44:20.982Z,2.85
2022-09-25T22:46:47.617Z,2.65
2022-09-25T22:51:40.619Z,2.80
2022-09-25T22:54:07.402Z,2.90
2022-09-25T22:56:35.301Z,2.78
2022-09-25T22:59:05.514Z,2.95
2022-09-25T23:01:38.971Z,3.05
